sensor_id;sensor_type;location;lat;lon;timestamp;P1;durP1;ratioP1;P2;durP2;ratioP2
5543;SDS011;2795;47.652;13.128;2023-07-13T00:01:31;14.03;;;4.10;;
5543;SDS011;2795;47.652;13.128;2023-07-13T00:03:59;8.40;;;3.30;;
5543;SDS011;2795;47.652;13.128;2023-07-13T00:06:26;12.70;;;3.60;;
5543;SDS011;2795;47.652;13.128;2023-07-13T00:08:56;6.40;;;3.23;;
5543;SDS011;2795;47.652;13.128;2023-07-13T00:11:23;13.83;;;4.27;;
5543;SDS011;2795;47.652;13.128;2023-07-13T00:13:50;13.07;;;4.10;;
5543;SDS011;2795;47.652;13.128;2023-07-13T00:16:17;9.83;;;3.70;;
5543;SDS011;2795;47.652;13.128;2023-07-13T00:18:45;30.73;;;4.13;;
5543;SDS011;2795;47.652;13.128;2023-07-13T00:21:12;15.83;;;4.13;;
5543;SDS011;2795;47.652;13.128;2023-07-13T00:23:40;15.80;;;4.30;;
5543;SDS011;2795;47.652;13.128;2023-07-13T00:26:08;18.00;;;4.47;;
5543;SDS011;2795;47.652;13.128;2023-07-13T00:28:38;13.47;;;4.20;;
5543;SDS011;2795;47.652;13.128;2023-07-13T00:31:06;10.10;;;3.93;;
5543;SDS011;2795;47.652;13.128;2023-07-13T00:33:34;12.00;;;4.43;;
5543;SDS011;2795;47.652;13.128;2023-07-13T00:36:01;10.97;;;4.00;;
5543;SDS011;2795;47.652;13.128;2023-07-13T00:38:29;7.80;;;3.63;;
5543;SDS011;2795;47.652;13.128;2023-07-13T00:40:55;8.90;;;3.60;;
5543;SDS011;2795;47.652;13.128;2023-07-13T00:43:23;7.77;;;3.30;;
5543;SDS011;2795;47.652;13.128;2023-07-13T00:48:24;13.53;;;3.57;;
5543;SDS011;2795;47.652;13.128;2023-07-13T00:50:53;15.20;;;3.97;;
5543;SDS011;2795;47.652;13.128;2023-07-13T00:53:22;7.17;;;3.53;;
5543;SDS011;2795;47.652;13.128;2023-07-13T00:55:49;6.73;;;3.33;;
5543;SDS011;2795;47.652;13.128;2023-07-13T00:58:17;11.80;;;4.13;;
5543;SDS011;2795;47.652;13.128;2023-07-13T01:00:44;8.57;;;3.60;;
5543;SDS011;2795;47.652;13.128;2023-07-13T01:05:43;10.00;;;3.80;;
5543;SDS011;2795;47.652;13.128;2023-07-13T01:08:10;19.23;;;4.63;;
5543;SDS011;2795;47.652;13.128;2023-07-13T01:10:36;13.80;;;4.50;;
5543;SDS011;2795;47.652;13.128;2023-07-13T01:13:06;7.97;;;3.63;;
5543;SDS011;2795;47.652;13.128;2023-07-13T01:15:35;14.80;;;4.57;;
5543;SDS011;2795;47.652;13.128;2023-07-13T01:18:07;9.70;;;3.77;;
5543;SDS011;2795;47.652;13.128;2023-07-13T01:20:37;11.90;;;3.93;;
5543;SDS011;2795;47.652;13.128;2023-07-13T01:23:05;10.73;;;3.80;;
5543;SDS011;2795;47.652;13.128;2023-07-13T01:25:32;14.47;;;3.70;;
5543;SDS011;2795;47.652;13.128;2023-07-13T01:28:02;12.00;;;4.03;;
5543;SDS011;2795;47.652;13.128;2023-07-13T01:30:29;9.33;;;3.80;;
5543;SDS011;2795;47.652;13.128;2023-07-13T01:32:56;14.40;;;3.80;;
5543;SDS011;2795;47.652;13.128;2023-07-13T01:35:22;14.60;;;3.50;;
5543;SDS011;2795;47.652;13.128;2023-07-13T01:37:51;11.40;;;3.87;;
5543;SDS011;2795;47.652;13.128;2023-07-13T01:40:18;15.00;;;3.90;;
5543;SDS011;2795;47.652;13.128;2023-07-13T01:42:44;13.57;;;3.80;;
5543;SDS011;2795;47.652;13.128;2023-07-13T01:45:11;15.73;;;4.20;;
5543;SDS011;2795;47.652;13.128;2023-07-13T01:47:38;8.80;;;3.27;;
5543;SDS011;2795;47.652;13.128;2023-07-13T01:50:05;10.77;;;3.47;;
5543;SDS011;2795;47.652;13.128;2023-07-13T01:52:31;9.40;;;3.47;;
5543;SDS011;2795;47.652;13.128;2023-07-13T01:54:58;10.80;;;3.43;;
5543;SDS011;2795;47.652;13.128;2023-07-13T01:57:25;12.57;;;3.60;;
5543;SDS011;2795;47.652;13.128;2023-07-13T01:59:51;14.37;;;3.83;;
5543;SDS011;2795;47.652;13.128;2023-07-13T02:02:18;12.80;;;3.73;;
5543;SDS011;2795;47.652;13.128;2023-07-13T02:04:45;8.80;;;3.03;;
5543;SDS011;2795;47.652;13.128;2023-07-13T02:07:11;19.77;;;4.73;;
5543;SDS011;2795;47.652;13.128;2023-07-13T02:09:38;35.00;;;14.23;;
5543;SDS011;2795;47.652;13.128;2023-07-13T02:12:05;20.13;;;5.20;;
5543;SDS011;2795;47.652;13.128;2023-07-13T02:14:32;11.37;;;3.70;;
5543;SDS011;2795;47.652;13.128;2023-07-13T02:16:59;9.90;;;3.37;;
5543;SDS011;2795;47.652;13.128;2023-07-13T02:19:25;8.77;;;3.30;;
5543;SDS011;2795;47.652;13.128;2023-07-13T02:21:52;13.30;;;3.43;;
5543;SDS011;2795;47.652;13.128;2023-07-13T02:24:19;13.53;;;3.57;;
5543;SDS011;2795;47.652;13.128;2023-07-13T02:26:47;16.97;;;3.40;;
5543;SDS011;2795;47.652;13.128;2023-07-13T02:29:14;14.13;;;3.63;;
5543;SDS011;2795;47.652;13.128;2023-07-13T02:31:41;13.73;;;3.57;;
5543;SDS011;2795;47.652;13.128;2023-07-13T02:34:07;16.47;;;4.13;;
5543;SDS011;2795;47.652;13.128;2023-07-13T02:36:34;13.33;;;3.47;;
5543;SDS011;2795;47.652;13.128;2023-07-13T02:39:01;11.97;;;2.90;;
5543;SDS011;2795;47.652;13.128;2023-07-13T02:41:29;9.60;;;2.90;;
5543;SDS011;2795;47.652;13.128;2023-07-13T02:43:57;11.87;;;3.40;;
5543;SDS011;2795;47.652;13.128;2023-07-13T02:46:29;9.73;;;2.93;;
5543;SDS011;2795;47.652;13.128;2023-07-13T02:48:59;9.53;;;2.90;;
5543;SDS011;2795;47.652;13.128;2023-07-13T02:51:26;11.00;;;3.23;;
5543;SDS011;2795;47.652;13.128;2023-07-13T02:53:53;4.80;;;2.17;;
5543;SDS011;2795;47.652;13.128;2023-07-13T02:56:26;9.30;;;2.80;;
5543;SDS011;2795;47.652;13.128;2023-07-13T02:58:55;11.13;;;3.30;;
5543;SDS011;2795;47.652;13.128;2023-07-13T03:01:21;6.13;;;2.47;;
5543;SDS011;2795;47.652;13.128;2023-07-13T03:03:49;7.27;;;3.00;;
5543;SDS011;2795;47.652;13.128;2023-07-13T03:06:16;11.17;;;3.10;;
5543;SDS011;2795;47.652;13.128;2023-07-13T03:08:44;12.77;;;3.33;;
5543;SDS011;2795;47.652;13.128;2023-07-13T03:11:12;15.73;;;3.13;;
5543;SDS011;2795;47.652;13.128;2023-07-13T03:13:40;12.33;;;3.23;;
5543;SDS011;2795;47.652;13.128;2023-07-13T03:16:08;13.30;;;3.40;;
5543;SDS011;2795;47.652;13.128;2023-07-13T03:18:36;11.07;;;3.00;;
5543;SDS011;2795;47.652;13.128;2023-07-13T03:21:04;6.83;;;2.57;;
5543;SDS011;2795;47.652;13.128;2023-07-13T03:23:31;11.47;;;3.47;;
5543;SDS011;2795;47.652;13.128;2023-07-13T03:26:02;9.73;;;3.00;;
5543;SDS011;2795;47.652;13.128;2023-07-13T03:28:30;15.23;;;3.43;;
5543;SDS011;2795;47.652;13.128;2023-07-13T03:31:04;9.17;;;2.80;;
5543;SDS011;2795;47.652;13.128;2023-07-13T03:33:42;13.70;;;3.30;;
5543;SDS011;2795;47.652;13.128;2023-07-13T03:36:13;10.00;;;3.10;;
5543;SDS011;2795;47.652;13.128;2023-07-13T03:38:51;8.87;;;2.70;;
5543;SDS011;2795;47.652;13.128;2023-07-13T03:41:19;9.13;;;2.90;;
5543;SDS011;2795;47.652;13.128;2023-07-13T03:43:46;9.60;;;3.40;;
5543;SDS011;2795;47.652;13.128;2023-07-13T03:46:16;9.40;;;2.77;;
5543;SDS011;2795;47.652;13.128;2023-07-13T03:48:44;14.80;;;3.27;;
5543;SDS011;2795;47.652;13.128;2023-07-13T03:51:12;11.63;;;3.37;;
5543;SDS011;2795;47.652;13.128;2023-07-13T03:53:41;16.50;;;3.83;;
5543;SDS011;2795;47.652;13.128;2023-07-13T03:56:09;13.90;;;3.67;;
5543;SDS011;2795;47.652;13.128;2023-07-13T03:58:38;9.17;;;3.00;;
5543;SDS011;2795;47.652;13.128;2023-07-13T04:01:07;7.57;;;3.00;;
5543;SDS011;2795;47.652;13.128;2023-07-13T04:03:35;16.23;;;3.80;;
5543;SDS011;2795;47.652;13.128;2023-07-13T04:06:02;7.00;;;3.03;;
5543;SDS011;2795;47.652;13.128;2023-07-13T04:08:32;13.53;;;3.87;;
5543;SDS011;2795;47.652;13.128;2023-07-13T04:11:00;12.77;;;3.60;;
5543;SDS011;2795;47.652;13.128;2023-07-13T04:13:27;7.73;;;3.17;;
5543;SDS011;2795;47.652;13.128;2023-07-13T04:15:53;12.53;;;3.77;;
5543;SDS011;2795;47.652;13.128;2023-07-13T04:18:20;14.67;;;3.57;;
5543;SDS011;2795;47.652;13.128;2023-07-13T04:20:47;11.47;;;3.50;;
5543;SDS011;2795;47.652;13.128;2023-07-13T04:23:15;15.40;;;3.50;;
5543;SDS011;2795;47.652;13.128;2023-07-13T04:25:48;16.10;;;4.13;;
5543;SDS011;2795;47.652;13.128;2023-07-13T04:28:16;14.10;;;3.50;;
5543;SDS011;2795;47.652;13.128;2023-07-13T04:30:44;5.83;;;2.43;;
5543;SDS011;2795;47.652;13.128;2023-07-13T04:33:10;14.70;;;3.60;;
5543;SDS011;2795;47.652;13.128;2023-07-13T04:35:37;13.93;;;3.87;;
5543;SDS011;2795;47.652;13.128;2023-07-13T04:38:04;8.67;;;4.70;;
5543;SDS011;2795;47.652;13.128;2023-07-13T04:40:31;13.30;;;3.40;;
5543;SDS011;2795;47.652;13.128;2023-07-13T04:42:57;6.37;;;2.73;;
5543;SDS011;2795;47.652;13.128;2023-07-13T04:45:24;10.20;;;2.90;;
5543;SDS011;2795;47.652;13.128;2023-07-13T04:47:51;11.70;;;3.40;;
5543;SDS011;2795;47.652;13.128;2023-07-13T04:50:18;12.87;;;3.53;;
5543;SDS011;2795;47.652;13.128;2023-07-13T04:52:50;7.10;;;2.87;;
5543;SDS011;2795;47.652;13.128;2023-07-13T04:55:17;26.87;;;3.90;;
5543;SDS011;2795;47.652;13.128;2023-07-13T04:57:45;7.73;;;2.90;;
5543;SDS011;2795;47.652;13.128;2023-07-13T05:00:13;9.70;;;2.87;;
5543;SDS011;2795;47.652;13.128;2023-07-13T05:02:43;6.87;;;2.57;;
5543;SDS011;2795;47.652;13.128;2023-07-13T05:05:10;5.37;;;2.50;;
5543;SDS011;2795;47.652;13.128;2023-07-13T05:07:37;8.30;;;3.00;;
5543;SDS011;2795;47.652;13.128;2023-07-13T05:10:04;6.27;;;2.40;;
5543;SDS011;2795;47.652;13.128;2023-07-13T05:12:31;13.57;;;3.40;;
5543;SDS011;2795;47.652;13.128;2023-07-13T05:14:58;11.60;;;3.20;;
5543;SDS011;2795;47.652;13.128;2023-07-13T05:17:24;9.23;;;2.80;;
5543;SDS011;2795;47.652;13.128;2023-07-13T05:19:51;13.87;;;3.60;;
5543;SDS011;2795;47.652;13.128;2023-07-13T05:22:18;8.73;;;3.20;;
5543;SDS011;2795;47.652;13.128;2023-07-13T05:24:44;19.03;;;3.77;;
5543;SDS011;2795;47.652;13.128;2023-07-13T05:27:11;18.17;;;3.73;;
5543;SDS011;2795;47.652;13.128;2023-07-13T05:29:38;13.73;;;3.33;;
5543;SDS011;2795;47.652;13.128;2023-07-13T05:32:04;10.17;;;3.10;;
5543;SDS011;2795;47.652;13.128;2023-07-13T05:34:31;9.33;;;3.00;;
5543;SDS011;2795;47.652;13.128;2023-07-13T05:36:58;9.93;;;2.80;;
5543;SDS011;2795;47.652;13.128;2023-07-13T05:39:25;15.40;;;3.70;;
5543;SDS011;2795;47.652;13.128;2023-07-13T05:41:53;16.53;;;4.20;;
5543;SDS011;2795;47.652;13.128;2023-07-13T05:44:20;13.80;;;4.57;;
5543;SDS011;2795;47.652;13.128;2023-07-13T05:46:47;11.60;;;3.50;;
5543;SDS011;2795;47.652;13.128;2023-07-13T05:49:13;7.67;;;3.30;;
5543;SDS011;2795;47.652;13.128;2023-07-13T05:51:40;9.20;;;3.57;;
5543;SDS011;2795;47.652;13.128;2023-07-13T05:54:07;7.53;;;3.17;;
5543;SDS011;2795;47.652;13.128;2023-07-13T05:56:33;15.97;;;4.47;;
5543;SDS011;2795;47.652;13.128;2023-07-13T05:59:00;9.80;;;3.70;;
5543;SDS011;2795;47.652;13.128;2023-07-13T06:01:27;9.33;;;3.30;;
5543;SDS011;2795;47.652;13.128;2023-07-13T06:03:54;10.00;;;3.63;;
5543;SDS011;2795;47.652;13.128;2023-07-13T06:06:20;13.10;;;4.00;;
5543;SDS011;2795;47.652;13.128;2023-07-13T06:08:47;9.57;;;3.50;;
5543;SDS011;2795;47.652;13.128;2023-07-13T06:11:15;7.13;;;3.33;;
5543;SDS011;2795;47.652;13.128;2023-07-13T06:13:47;11.63;;;3.37;;
5543;SDS011;2795;47.652;13.128;2023-07-13T06:16:13;16.90;;;4.20;;
5543;SDS011;2795;47.652;13.128;2023-07-13T06:18:41;10.90;;;4.20;;
5543;SDS011;2795;47.652;13.128;2023-07-13T06:21:08;11.90;;;5.97;;
5543;SDS011;2795;47.652;13.128;2023-07-13T06:23:37;11.43;;;4.30;;
5543;SDS011;2795;47.652;13.128;2023-07-13T06:26:04;11.30;;;3.77;;
5543;SDS011;2795;47.652;13.128;2023-07-13T06:28:32;10.60;;;3.50;;
5543;SDS011;2795;47.652;13.128;2023-07-13T06:30:59;13.03;;;3.83;;
5543;SDS011;2795;47.652;13.128;2023-07-13T06:33:26;9.23;;;3.70;;
5543;SDS011;2795;47.652;13.128;2023-07-13T06:35:53;18.63;;;4.93;;
5543;SDS011;2795;47.652;13.128;2023-07-13T06:38:21;10.67;;;4.13;;
5543;SDS011;2795;47.652;13.128;2023-07-13T06:40:48;13.13;;;3.70;;
5543;SDS011;2795;47.652;13.128;2023-07-13T06:43:14;11.43;;;4.83;;
5543;SDS011;2795;47.652;13.128;2023-07-13T06:45:43;6.20;;;3.23;;
5543;SDS011;2795;47.652;13.128;2023-07-13T06:48:14;15.13;;;3.43;;
5543;SDS011;2795;47.652;13.128;2023-07-13T06:50:44;14.77;;;4.50;;
5543;SDS011;2795;47.652;13.128;2023-07-13T06:53:11;14.37;;;4.17;;
5543;SDS011;2795;47.652;13.128;2023-07-13T06:55:39;6.37;;;3.17;;
5543;SDS011;2795;47.652;13.128;2023-07-13T06:58:06;9.57;;;3.53;;
5543;SDS011;2795;47.652;13.128;2023-07-13T07:00:33;14.70;;;3.60;;
5543;SDS011;2795;47.652;13.128;2023-07-13T07:03:00;12.70;;;3.60;;
5543;SDS011;2795;47.652;13.128;2023-07-13T07:05:27;14.07;;;3.93;;
5543;SDS011;2795;47.652;13.128;2023-07-13T07:07:54;14.23;;;3.93;;
5543;SDS011;2795;47.652;13.128;2023-07-13T07:10:21;15.70;;;3.60;;
5543;SDS011;2795;47.652;13.128;2023-07-13T07:12:48;13.60;;;4.10;;
5543;SDS011;2795;47.652;13.128;2023-07-13T07:15:15;13.43;;;3.90;;
5543;SDS011;2795;47.652;13.128;2023-07-13T07:17:42;4.20;;;2.50;;
5543;SDS011;2795;47.652;13.128;2023-07-13T07:20:10;10.77;;;3.57;;
5543;SDS011;2795;47.652;13.128;2023-07-13T07:22:37;7.20;;;2.80;;
5543;SDS011;2795;47.652;13.128;2023-07-13T07:25:04;7.60;;;3.30;;
5543;SDS011;2795;47.652;13.128;2023-07-13T07:27:30;6.33;;;2.90;;
5543;SDS011;2795;47.652;13.128;2023-07-13T07:30:01;6.90;;;2.90;;
5543;SDS011;2795;47.652;13.128;2023-07-13T07:32:30;8.17;;;3.03;;
5543;SDS011;2795;47.652;13.128;2023-07-13T07:35:17;7.50;;;2.93;;
5543;SDS011;2795;47.652;13.128;2023-07-13T07:37:44;10.90;;;3.90;;
5543;SDS011;2795;47.652;13.128;2023-07-13T07:40:13;8.70;;;3.30;;
5543;SDS011;2795;47.652;13.128;2023-07-13T07:42:43;10.00;;;4.23;;
5543;SDS011;2795;47.652;13.128;2023-07-13T07:45:09;11.50;;;5.07;;
5543;SDS011;2795;47.652;13.128;2023-07-13T07:47:37;11.10;;;4.17;;
5543;SDS011;2795;47.652;13.128;2023-07-13T07:50:05;10.83;;;4.30;;
5543;SDS011;2795;47.652;13.128;2023-07-13T07:52:32;10.80;;;4.00;;
5543;SDS011;2795;47.652;13.128;2023-07-13T07:54:59;10.90;;;4.20;;
5543;SDS011;2795;47.652;13.128;2023-07-13T07:57:29;6.33;;;3.13;;
5543;SDS011;2795;47.652;13.128;2023-07-13T07:59:58;13.37;;;3.67;;
5543;SDS011;2795;47.652;13.128;2023-07-13T08:02:28;9.73;;;3.73;;
5543;SDS011;2795;47.652;13.128;2023-07-13T08:04:57;22.77;;;4.10;;
5543;SDS011;2795;47.652;13.128;2023-07-13T08:07:27;6.30;;;3.20;;
5543;SDS011;2795;47.652;13.128;2023-07-13T08:09:54;11.53;;;4.27;;
5543;SDS011;2795;47.652;13.128;2023-07-13T08:12:21;8.53;;;3.33;;
5543;SDS011;2795;47.652;13.128;2023-07-13T08:14:50;10.33;;;4.00;;
5543;SDS011;2795;47.652;13.128;2023-07-13T08:17:20;13.80;;;3.53;;
5543;SDS011;2795;47.652;13.128;2023-07-13T08:19:47;11.30;;;4.07;;
5543;SDS011;2795;47.652;13.128;2023-07-13T08:22:13;8.30;;;3.63;;
5543;SDS011;2795;47.652;13.128;2023-07-13T08:24:40;9.93;;;3.37;;
5543;SDS011;2795;47.652;13.128;2023-07-13T08:27:08;14.10;;;3.73;;
5543;SDS011;2795;47.652;13.128;2023-07-13T08:29:38;6.17;;;3.33;;
5543;SDS011;2795;47.652;13.128;2023-07-13T08:32:05;6.83;;;3.10;;
5543;SDS011;2795;47.652;13.128;2023-07-13T08:34:36;9.70;;;3.53;;
5543;SDS011;2795;47.652;13.128;2023-07-13T08:37:02;5.23;;;3.10;;
5543;SDS011;2795;47.652;13.128;2023-07-13T08:39:30;9.47;;;3.47;;
5543;SDS011;2795;47.652;13.128;2023-07-13T08:41:59;10.30;;;3.70;;
5543;SDS011;2795;47.652;13.128;2023-07-13T08:44:40;10.83;;;3.43;;
5543;SDS011;2795;47.652;13.128;2023-07-13T08:47:11;11.50;;;3.90;;
5543;SDS011;2795;47.652;13.128;2023-07-13T08:49:40;8.40;;;3.70;;
5543;SDS011;2795;47.652;13.128;2023-07-13T08:52:09;9.23;;;3.50;;
5543;SDS011;2795;47.652;13.128;2023-07-13T08:54:40;11.93;;;4.10;;
5543;SDS011;2795;47.652;13.128;2023-07-13T08:57:13;5.47;;;3.43;;
5543;SDS011;2795;47.652;13.128;2023-07-13T08:59:40;8.73;;;3.37;;
5543;SDS011;2795;47.652;13.128;2023-07-13T09:02:16;9.90;;;3.60;;
5543;SDS011;2795;47.652;13.128;2023-07-13T09:05:02;10.33;;;3.73;;
5543;SDS011;2795;47.652;13.128;2023-07-13T09:13:03;11.97;;;5.97;;
5543;SDS011;2795;47.652;13.128;2023-07-13T09:15:46;12.60;;;3.87;;
5543;SDS011;2795;47.652;13.128;2023-07-13T09:18:16;11.87;;;3.97;;
5543;SDS011;2795;47.652;13.128;2023-07-13T09:23:19;8.50;;;4.07;;
5543;SDS011;2795;47.652;13.128;2023-07-13T09:25:49;12.20;;;4.47;;
5543;SDS011;2795;47.652;13.128;2023-07-13T09:28:25;7.00;;;3.57;;
5543;SDS011;2795;47.652;13.128;2023-07-13T09:33:32;10.27;;;3.43;;
5543;SDS011;2795;47.652;13.128;2023-07-13T09:35:59;10.83;;;4.00;;
5543;SDS011;2795;47.652;13.128;2023-07-13T09:38:27;7.03;;;3.53;;
5543;SDS011;2795;47.652;13.128;2023-07-13T09:41:15;13.50;;;4.57;;
5543;SDS011;2795;47.652;13.128;2023-07-13T09:46:46;12.10;;;4.37;;
5543;SDS011;2795;47.652;13.128;2023-07-13T09:49:18;11.50;;;4.10;;
5543;SDS011;2795;47.652;13.128;2023-07-13T09:51:57;15.40;;;4.97;;
5543;SDS011;2795;47.652;13.128;2023-07-13T09:54:26;12.97;;;4.50;;
5543;SDS011;2795;47.652;13.128;2023-07-13T09:56:56;7.83;;;3.87;;
5543;SDS011;2795;47.652;13.128;2023-07-13T09:59:27;12.23;;;4.10;;
5543;SDS011;2795;47.652;13.128;2023-07-13T10:01:56;14.80;;;4.37;;
5543;SDS011;2795;47.652;13.128;2023-07-13T10:04:27;10.33;;;4.07;;
5543;SDS011;2795;47.652;13.128;2023-07-13T10:07:06;10.83;;;4.30;;
5543;SDS011;2795;47.652;13.128;2023-07-13T10:09:54;12.30;;;4.27;;
5543;SDS011;2795;47.652;13.128;2023-07-13T10:12:22;13.97;;;4.73;;
5543;SDS011;2795;47.652;13.128;2023-07-13T10:14:55;14.13;;;4.97;;
5543;SDS011;2795;47.652;13.128;2023-07-13T10:17:42;6.50;;;3.30;;
5543;SDS011;2795;47.652;13.128;2023-07-13T10:20:10;5.27;;;3.47;;
5543;SDS011;2795;47.652;13.128;2023-07-13T10:22:43;14.80;;;5.07;;
5543;SDS011;2795;47.652;13.128;2023-07-13T10:25:20;8.50;;;3.60;;
5543;SDS011;2795;47.652;13.128;2023-07-13T10:27:49;18.73;;;4.47;;
5543;SDS011;2795;47.652;13.128;2023-07-13T10:30:22;11.30;;;4.60;;
5543;SDS011;2795;47.652;13.128;2023-07-13T10:33:01;8.93;;;3.90;;
5543;SDS011;2795;47.652;13.128;2023-07-13T10:35:29;7.47;;;3.47;;
5543;SDS011;2795;47.652;13.128;2023-07-13T10:40:39;7.30;;;3.23;;
5543;SDS011;2795;47.652;13.128;2023-07-13T10:43:14;8.70;;;3.93;;
5543;SDS011;2795;47.652;13.128;2023-07-13T10:45:43;6.27;;;3.47;;
5543;SDS011;2795;47.652;13.128;2023-07-13T10:48:12;6.83;;;3.40;;
5543;SDS011;2795;47.652;13.128;2023-07-13T10:50:43;5.67;;;3.30;;
5543;SDS011;2795;47.652;13.128;2023-07-13T10:53:21;19.67;;;4.17;;
5543;SDS011;2795;47.652;13.128;2023-07-13T10:55:56;11.70;;;4.57;;
5543;SDS011;2795;47.652;13.128;2023-07-13T10:58:34;9.73;;;3.97;;
5543;SDS011;2795;47.652;13.128;2023-07-13T11:03:33;9.67;;;3.87;;
5543;SDS011;2795;47.652;13.128;2023-07-13T11:06:11;9.27;;;3.97;;
5543;SDS011;2795;47.652;13.128;2023-07-13T11:11:32;9.30;;;4.10;;
5543;SDS011;2795;47.652;13.128;2023-07-13T11:13:57;8.73;;;3.60;;
5543;SDS011;2795;47.652;13.128;2023-07-13T11:16:35;14.43;;;4.53;;
5543;SDS011;2795;47.652;13.128;2023-07-13T11:21:30;15.47;;;4.67;;
5543;SDS011;2795;47.652;13.128;2023-07-13T11:31:41;7.60;;;4.00;;
5543;SDS011;2795;47.652;13.128;2023-07-13T11:34:13;7.57;;;4.17;;
5543;SDS011;2795;47.652;13.128;2023-07-13T11:36:44;7.57;;;3.57;;
5543;SDS011;2795;47.652;13.128;2023-07-13T11:42:13;9.07;;;4.03;;
5543;SDS011;2795;47.652;13.128;2023-07-13T11:44:43;18.80;;;4.23;;
5543;SDS011;2795;47.652;13.128;2023-07-13T11:47:32;11.07;;;4.10;;
5543;SDS011;2795;47.652;13.128;2023-07-13T11:49:58;13.10;;;4.63;;
5543;SDS011;2795;47.652;13.128;2023-07-13T11:52:29;8.13;;;3.80;;
5543;SDS011;2795;47.652;13.128;2023-07-13T11:55:00;11.50;;;4.33;;
5543;SDS011;2795;47.652;13.128;2023-07-13T11:57:29;12.50;;;4.70;;
5543;SDS011;2795;47.652;13.128;2023-07-13T12:00:09;11.03;;;4.30;;
5543;SDS011;2795;47.652;13.128;2023-07-13T12:02:40;9.53;;;4.13;;
5543;SDS011;2795;47.652;13.128;2023-07-13T12:05:12;11.60;;;4.43;;
5543;SDS011;2795;47.652;13.128;2023-07-13T12:07:40;11.67;;;4.60;;
5543;SDS011;2795;47.652;13.128;2023-07-13T12:12:46;17.83;;;5.40;;
5543;SDS011;2795;47.652;13.128;2023-07-13T12:15:14;12.33;;;4.60;;
5543;SDS011;2795;47.652;13.128;2023-07-13T12:17:40;8.50;;;4.03;;
5543;SDS011;2795;47.652;13.128;2023-07-13T12:20:17;15.23;;;5.20;;
5543;SDS011;2795;47.652;13.128;2023-07-13T12:22:47;7.73;;;4.40;;
5543;SDS011;2795;47.652;13.128;2023-07-13T12:25:14;9.20;;;3.93;;
5543;SDS011;2795;47.652;13.128;2023-07-13T12:27:42;8.33;;;3.93;;
5543;SDS011;2795;47.652;13.128;2023-07-13T12:30:32;11.63;;;4.60;;
5543;SDS011;2795;47.652;13.128;2023-07-13T12:33:10;10.33;;;4.00;;
5543;SDS011;2795;47.652;13.128;2023-07-13T12:35:46;19.20;;;4.80;;
5543;SDS011;2795;47.652;13.128;2023-07-13T12:38:15;10.73;;;4.50;;
5543;SDS011;2795;47.652;13.128;2023-07-13T12:40:42;8.17;;;4.10;;
5543;SDS011;2795;47.652;13.128;2023-07-13T12:43:12;10.50;;;4.37;;
5543;SDS011;2795;47.652;13.128;2023-07-13T12:45:54;14.90;;;5.07;;
5543;SDS011;2795;47.652;13.128;2023-07-13T12:48:22;7.63;;;3.77;;
5543;SDS011;2795;47.652;13.128;2023-07-13T12:51:10;12.97;;;4.50;;
5543;SDS011;2795;47.652;13.128;2023-07-13T12:53:40;8.20;;;3.83;;
5543;SDS011;2795;47.652;13.128;2023-07-13T12:56:08;8.83;;;3.90;;
5543;SDS011;2795;47.652;13.128;2023-07-13T12:58:44;7.10;;;3.50;;
5543;SDS011;2795;47.652;13.128;2023-07-13T13:01:14;9.43;;;4.10;;
5543;SDS011;2795;47.652;13.128;2023-07-13T13:03:45;12.53;;;4.73;;
5543;SDS011;2795;47.652;13.128;2023-07-13T13:08:48;6.73;;;3.63;;
5543;SDS011;2795;47.652;13.128;2023-07-13T13:11:17;12.00;;;4.97;;
5543;SDS011;2795;47.652;13.128;2023-07-13T13:13:45;14.30;;;4.73;;
5543;SDS011;2795;47.652;13.128;2023-07-13T13:19:16;11.50;;;4.40;;
5543;SDS011;2795;47.652;13.128;2023-07-13T13:21:48;7.97;;;4.27;;
5543;SDS011;2795;47.652;13.128;2023-07-13T13:24:19;19.77;;;6.00;;
5543;SDS011;2795;47.652;13.128;2023-07-13T13:26:47;9.87;;;4.80;;
5543;SDS011;2795;47.652;13.128;2023-07-13T13:29:16;8.00;;;4.00;;
5543;SDS011;2795;47.652;13.128;2023-07-13T13:31:44;14.67;;;4.47;;
5543;SDS011;2795;47.652;13.128;2023-07-13T13:34:12;11.53;;;4.50;;
5543;SDS011;2795;47.652;13.128;2023-07-13T13:36:40;13.37;;;4.60;;
5543;SDS011;2795;47.652;13.128;2023-07-13T13:39:15;15.13;;;5.00;;
5543;SDS011;2795;47.652;13.128;2023-07-13T13:41:46;13.13;;;5.23;;
5543;SDS011;2795;47.652;13.128;2023-07-13T13:44:14;13.13;;;4.47;;
5543;SDS011;2795;47.652;13.128;2023-07-13T13:46:43;13.70;;;4.80;;
5543;SDS011;2795;47.652;13.128;2023-07-13T13:49:13;12.10;;;4.53;;
5543;SDS011;2795;47.652;13.128;2023-07-13T13:51:41;7.47;;;3.73;;
5543;SDS011;2795;47.652;13.128;2023-07-13T13:54:15;9.13;;;3.73;;
5543;SDS011;2795;47.652;13.128;2023-07-13T13:56:43;10.73;;;4.20;;
5543;SDS011;2795;47.652;13.128;2023-07-13T13:59:10;8.07;;;3.90;;
5543;SDS011;2795;47.652;13.128;2023-07-13T14:01:37;9.63;;;3.97;;
5543;SDS011;2795;47.652;13.128;2023-07-13T14:04:04;10.23;;;3.97;;
5543;SDS011;2795;47.652;13.128;2023-07-13T14:06:32;10.63;;;4.50;;
5543;SDS011;2795;47.652;13.128;2023-07-13T14:09:00;10.67;;;4.60;;
5543;SDS011;2795;47.652;13.128;2023-07-13T14:11:29;7.83;;;3.57;;
5543;SDS011;2795;47.652;13.128;2023-07-13T14:16:38;17.37;;;5.00;;
5543;SDS011;2795;47.652;13.128;2023-07-13T14:19:05;12.33;;;4.70;;
5543;SDS011;2795;47.652;13.128;2023-07-13T14:24:06;19.10;;;5.87;;
5543;SDS011;2795;47.652;13.128;2023-07-13T14:28:58;19.23;;;6.10;;
5543;SDS011;2795;47.652;13.128;2023-07-13T14:34:07;21.00;;;6.17;;
5543;SDS011;2795;47.652;13.128;2023-07-13T14:36:42;18.67;;;5.90;;
5543;SDS011;2795;47.652;13.128;2023-07-13T14:39:12;20.47;;;5.80;;
5543;SDS011;2795;47.652;13.128;2023-07-13T14:41:41;25.90;;;7.03;;
5543;SDS011;2795;47.652;13.128;2023-07-13T14:57:38;55.30;;;10.50;;
5543;SDS011;2795;47.652;13.128;2023-07-13T15:00:12;30.80;;;7.10;;
5543;SDS011;2795;47.652;13.128;2023-07-13T15:02:47;26.13;;;6.87;;
5543;SDS011;2795;47.652;13.128;2023-07-13T15:05:16;30.77;;;7.40;;
5543;SDS011;2795;47.652;13.128;2023-07-13T15:07:49;27.90;;;6.80;;
5543;SDS011;2795;47.652;13.128;2023-07-13T15:10:17;34.13;;;7.90;;
5543;SDS011;2795;47.652;13.128;2023-07-13T15:12:45;40.47;;;8.70;;
5543;SDS011;2795;47.652;13.128;2023-07-13T16:14:37;12.30;;;4.70;;
5543;SDS011;2795;47.652;13.128;2023-07-13T16:17:07;10.13;;;4.73;;
5543;SDS011;2795;47.652;13.128;2023-07-13T16:19:36;14.73;;;5.73;;
5543;SDS011;2795;47.652;13.128;2023-07-13T16:22:03;12.33;;;5.17;;
5543;SDS011;2795;47.652;13.128;2023-07-13T16:24:31;11.83;;;5.10;;
5543;SDS011;2795;47.652;13.128;2023-07-13T16:26:59;12.40;;;4.67;;
5543;SDS011;2795;47.652;13.128;2023-07-13T16:29:30;15.83;;;4.90;;
5543;SDS011;2795;47.652;13.128;2023-07-13T16:34:30;14.50;;;5.53;;
5543;SDS011;2795;47.652;13.128;2023-07-13T16:36:57;12.20;;;5.20;;
5543;SDS011;2795;47.652;13.128;2023-07-13T16:39:25;10.10;;;4.83;;
5543;SDS011;2795;47.652;13.128;2023-07-13T16:41:53;22.83;;;5.30;;
5543;SDS011;2795;47.652;13.128;2023-07-13T16:44:21;14.10;;;5.53;;
5543;SDS011;2795;47.652;13.128;2023-07-13T16:46:49;12.07;;;5.07;;
5543;SDS011;2795;47.652;13.128;2023-07-13T16:49:21;15.30;;;5.03;;
5543;SDS011;2795;47.652;13.128;2023-07-13T16:51:52;17.50;;;6.10;;
5543;SDS011;2795;47.652;13.128;2023-07-13T16:54:19;17.63;;;6.33;;
5543;SDS011;2795;47.652;13.128;2023-07-13T16:56:47;14.63;;;5.50;;
5543;SDS011;2795;47.652;13.128;2023-07-13T16:59:17;21.20;;;6.23;;
5543;SDS011;2795;47.652;13.128;2023-07-13T17:01:44;13.97;;;5.10;;
5543;SDS011;2795;47.652;13.128;2023-07-13T17:06:49;20.30;;;5.87;;
5543;SDS011;2795;47.652;13.128;2023-07-13T17:09:18;16.20;;;5.40;;
5543;SDS011;2795;47.652;13.128;2023-07-13T17:11:44;13.23;;;5.10;;
5543;SDS011;2795;47.652;13.128;2023-07-13T17:14:18;13.90;;;5.30;;
5543;SDS011;2795;47.652;13.128;2023-07-13T17:16:46;14.03;;;5.40;;
5543;SDS011;2795;47.652;13.128;2023-07-13T17:19:15;15.53;;;5.70;;
5543;SDS011;2795;47.652;13.128;2023-07-13T17:21:46;15.90;;;5.50;;